createdAt,value
2018-10-01T00:02:13.080Z,20.50
2018-10-01T00:04:41.348Z,20.50
2018-10-01T00:07:09.652Z,20.50
2018-10-01T00:09:37.917Z,20.50
2018-10-01T00:12:06.241Z,20.50
2018-10-01T00:14:34.519Z,20.50
2018-10-01T00:17:02.810Z,20.50
2018-10-01T00:19:36.352Z,20.40
2018-10-01T00:22:10.080Z,20.40
2018-10-01T00:24:38.355Z,20.50
2018-10-01T00:27:06.660Z,20.50
2018-10-01T00:29:35.204Z,20.70
2018-10-01T00:32:03.473Z,20.70
2018-10-01T00:34:31.725Z,20.70
2018-10-01T00:37:00.013Z,20.70
2018-10-01T00:39:28.296Z,20.60
2018-10-01T00:41:56.586Z,20.60
2018-10-01T00:44:24.916Z,20.60
2018-10-01T00:46:53.188Z,20.60
2018-10-01T00:49:21.468Z,20.60
2018-10-01T00:51:49.731Z,20.50
2018-10-01T00:54:18.044Z,20.50
2018-10-01T00:56:46.316Z,20.50
2018-10-01T00:59:14.600Z,20.50
2018-10-01T01:01:42.882Z,20.50
2018-10-01T01:04:11.196Z,20.50
2018-10-01T01:06:39.482Z,20.50
2018-10-01T01:09:08.207Z,20.40
2018-10-01T01:11:36.489Z,20.40
2018-10-01T01:14:04.774Z,20.40
2018-10-01T01:16:33.064Z,20.40
2018-10-01T01:19:01.380Z,20.50
2018-10-01T01:21:29.708Z,20.70
2018-10-01T01:23:58.052Z,20.70
2018-10-01T01:26:26.348Z,20.70
2018-10-01T01:28:54.644Z,20.70
2018-10-01T01:31:22.942Z,20.60
2018-10-01T01:33:51.224Z,20.60
2018-10-01T01:36:19.491Z,20.60
2018-10-01T01:38:47.769Z,20.60
2018-10-01T01:41:16.479Z,20.50
2018-10-01T01:43:44.980Z,20.50
2018-10-01T01:46:13.244Z,20.50
2018-10-01T01:48:41.757Z,20.50
2018-10-01T01:51:10.339Z,20.50
2018-10-01T01:53:38.598Z,20.50
2018-10-01T01:56:06.930Z,20.50
2018-10-01T01:58:35.201Z,20.40
2018-10-01T02:01:03.467Z,20.40
2018-10-01T02:03:31.734Z,20.40
2018-10-01T02:06:00.021Z,20.40
2018-10-01T02:08:28.537Z,20.50
2018-10-01T02:10:56.826Z,20.60
2018-10-01T02:13:25.097Z,20.70
2018-10-01T02:15:53.349Z,20.70
2018-10-01T02:18:21.615Z,20.60
2018-10-01T02:20:49.889Z,20.60
2018-10-01T02:23:18.157Z,20.60
2018-10-01T02:25:46.429Z,20.60
2018-10-01T02:28:14.748Z,20.50
2018-10-01T02:30:43.017Z,20.50
2018-10-01T02:33:11.307Z,20.50
2018-10-01T02:35:39.602Z,20.50
2018-10-01T02:38:07.859Z,20.50
2018-10-01T02:40:36.132Z,20.50
2018-10-01T02:43:04.417Z,20.50
2018-10-01T02:45:32.709Z,20.40
2018-10-01T02:48:00.991Z,20.40
2018-10-01T02:50:29.271Z,20.40
2018-10-01T02:53:02.849Z,20.40
2018-10-01T02:55:31.145Z,20.40
2018-10-01T02:57:59.429Z,20.50
2018-10-01T03:00:27.701Z,20.60
2018-10-01T03:02:55.984Z,20.60
2018-10-01T03:05:24.270Z,20.60
2018-10-01T03:07:52.549Z,20.60
2018-10-01T03:10:20.829Z,20.60
2018-10-01T03:12:49.091Z,20.60
2018-10-01T03:15:17.373Z,20.60
2018-10-01T03:17:45.666Z,20.50
2018-10-01T03:20:13.953Z,20.50
2018-10-01T03:22:42.214Z,20.50
2018-10-01T03:25:10.495Z,20.40
2018-10-01T03:27:38.766Z,20.40
2018-10-01T03:30:07.666Z,20.40
2018-10-01T03:32:35.933Z,20.40
2018-10-01T03:35:04.191Z,20.40
2018-10-01T03:37:32.464Z,20.40
2018-10-01T03:40:00.732Z,20.30
2018-10-01T03:42:29.020Z,20.30
2018-10-01T03:44:57.356Z,20.40
2018-10-01T03:47:25.644Z,20.40
2018-10-01T03:49:53.911Z,20.60
2018-10-01T03:52:22.175Z,20.70
2018-10-01T03:54:50.561Z,20.70
2018-10-01T03:57:18.842Z,20.70
2018-10-01T03:59:47.107Z,20.70
2018-10-01T04:02:15.387Z,20.60
2018-10-01T04:04:43.677Z,20.50
2018-10-01T04:07:11.968Z,20.50
2018-10-01T04:09:40.266Z,20.50
2018-10-01T04:12:08.523Z,20.40
2018-10-01T04:14:36.813Z,20.40
2018-10-01T04:17:05.077Z,20.40
2018-10-01T04:19:33.356Z,20.40
2018-10-01T04:22:01.635Z,20.40
2018-10-01T04:24:29.952Z,20.40
2018-10-01T04:26:58.213Z,20.30
2018-10-01T04:29:26.485Z,20.30
2018-10-01T04:31:54.767Z,20.40
2018-10-01T04:34:23.037Z,20.40
2018-10-01T04:36:51.319Z,20.50
2018-10-01T04:39:19.588Z,20.50
2018-10-01T04:41:47.849Z,20.50
2018-10-01T04:44:16.118Z,20.50
2018-10-01T04:46:44.451Z,20.50
2018-10-01T04:49:12.680Z,20.50
2018-10-01T04:51:42.416Z,20.50
2018-10-01T04:54:10.724Z,20.40
2018-10-01T04:56:38.990Z,20.40
2018-10-01T04:59:07.882Z,20.40
2018-10-01T05:01:36.160Z,20.30
2018-10-01T05:04:04.434Z,20.30
2018-10-01T05:06:33.182Z,20.40
2018-10-01T05:09:01.468Z,20.50
2018-10-01T05:11:29.751Z,20.50
2018-10-01T05:13:58.026Z,20.50
2018-10-01T05:16:26.296Z,20.50
2018-10-01T05:18:54.564Z,20.50
2018-10-01T05:21:22.832Z,20.40
2018-10-01T05:23:51.110Z,20.40
2018-10-01T05:26:19.427Z,20.40
2018-10-01T05:28:47.732Z,20.40
2018-10-01T05:31:16.016Z,20.40
2018-10-01T05:33:44.279Z,20.30
2018-10-01T05:36:12.564Z,20.30
2018-10-01T05:38:41.155Z,20.30
2018-10-01T05:41:09.448Z,20.30
2018-10-01T05:43:38.744Z,20.30
2018-10-01T05:46:07.350Z,20.30
2018-10-01T05:48:35.656Z,20.30
2018-10-01T05:51:03.932Z,20.30
2018-10-01T05:53:32.212Z,20.20
2018-10-01T05:56:00.518Z,20.20
2018-10-01T05:58:28.772Z,20.30
2018-10-01T06:00:57.064Z,20.30
2018-10-01T06:03:25.329Z,20.50
2018-10-01T06:05:53.648Z,20.60
2018-10-01T06:08:21.931Z,20.60
2018-10-01T06:10:50.215Z,20.60
2018-10-01T06:13:18.508Z,20.50
2018-10-01T06:15:46.796Z,20.50
2018-10-01T06:18:15.079Z,20.40
2018-10-01T06:20:43.328Z,20.40
2018-10-01T06:23:11.600Z,20.30
2018-10-01T06:25:39.910Z,20.30
2018-10-01T06:28:08.272Z,20.30
2018-10-01T06:30:36.538Z,20.30
2018-10-01T06:33:04.803Z,20.30
2018-10-01T06:35:33.074Z,20.30
2018-10-01T06:38:01.393Z,20.20
2018-10-01T06:40:29.639Z,20.20
2018-10-01T06:42:57.908Z,20.20
2018-10-01T06:45:26.166Z,20.30
2018-10-01T06:47:54.448Z,20.40
2018-10-01T06:50:22.746Z,20.50
2018-10-01T06:52:51.020Z,20.50
2018-10-01T06:55:19.286Z,20.50
2018-10-01T06:57:47.815Z,20.40
2018-10-01T07:00:16.068Z,20.40
2018-10-01T07:02:44.353Z,20.40
2018-10-01T07:05:12.628Z,20.40
2018-10-01T07:07:40.882Z,20.30
2018-10-01T07:10:09.155Z,20.30
2018-10-01T07:12:37.688Z,20.30
2018-10-01T07:15:05.974Z,20.30
2018-10-01T07:17:34.281Z,20.20
2018-10-01T07:20:02.624Z,20.20
2018-10-01T07:22:30.995Z,20.20
2018-10-01T07:24:59.244Z,20.20
2018-10-01T07:27:27.549Z,20.20
2018-10-01T07:29:55.808Z,20.20
2018-10-01T07:32:24.090Z,20.20
2018-10-01T07:34:52.531Z,20.20
2018-10-01T07:37:20.834Z,20.20
2018-10-01T07:39:50.359Z,20.20
2018-10-01T07:42:18.620Z,20.30
2018-10-01T07:44:46.924Z,20.40
2018-10-01T07:47:15.308Z,20.40
2018-10-01T07:49:43.619Z,20.40
2018-10-01T07:52:11.899Z,20.40
2018-10-01T07:54:40.190Z,20.30
2018-10-01T07:57:09.178Z,20.30
2018-10-01T07:59:37.858Z,20.30
2018-10-01T08:02:06.020Z,20.30
2018-10-01T08:04:34.287Z,20.30
2018-10-01T08:07:02.568Z,20.20
2018-10-01T08:09:30.859Z,20.20
2018-10-01T08:11:59.721Z,20.20
2018-10-01T08:14:28.057Z,20.20
2018-10-01T08:16:56.273Z,20.20
2018-10-01T08:19:24.641Z,20.20
2018-10-01T08:21:52.919Z,20.20
2018-10-01T08:24:21.221Z,20.20
2018-10-01T08:26:49.599Z,20.10
2018-10-01T08:29:17.886Z,20.10
2018-10-01T08:31:46.133Z,20.20
2018-10-01T08:34:14.545Z,20.30
2018-10-01T08:36:42.883Z,20.40
2018-10-01T08:39:13.083Z,20.40
2018-10-01T08:41:42.109Z,20.30
2018-10-01T08:44:11.482Z,20.30
2018-10-01T08:46:39.690Z,20.30
2018-10-01T08:49:13.497Z,20.30
2018-10-01T08:51:47.387Z,20.20
2018-10-01T08:54:20.355Z,20.20
2018-10-01T08:56:48.666Z,20.20
2018-10-01T08:59:16.940Z,20.20
2018-10-01T09:01:45.444Z,20.20
2018-10-01T09:04:13.723Z,20.20
2018-10-01T09:06:42.054Z,20.20
2018-10-01T09:09:12.083Z,20.30
2018-10-01T09:11:40.361Z,20.20
2018-10-01T09:14:08.732Z,20.20
2018-10-01T09:16:37.020Z,20.20
2018-10-01T09:19:05.331Z,20.20
2018-10-01T09:21:33.752Z,20.20
2018-10-01T09:24:02.037Z,20.20
2018-10-01T09:26:30.376Z,20.20
2018-10-01T09:28:58.705Z,20.10
2018-10-01T09:31:27.889Z,20.10
2018-10-01T09:33:56.244Z,20.10
2018-10-01T09:36:24.632Z,20.10
2018-10-01T09:38:53.176Z,20.10
2018-10-01T09:41:21.451Z,20.20
2018-10-01T09:43:49.789Z,20.20
2018-10-01T09:46:18.159Z,20.30
2018-10-01T09:48:46.449Z,20.20
2018-10-01T09:51:14.790Z,20.20
2018-10-01T09:53:43.165Z,20.20
2018-10-01T09:56:12.472Z,20.20
2018-10-01T09:58:40.699Z,20.20
2018-10-01T10:01:14.558Z,20.10
2018-10-01T10:03:42.841Z,20.10
2018-10-01T10:06:11.126Z,20.10
2018-10-01T10:08:39.892Z,20.10
2018-10-01T10:11:08.101Z,20.10
2018-10-01T10:13:36.404Z,20.10
2018-10-01T10:16:04.722Z,20.10
2018-10-01T10:18:32.962Z,20.10
2018-10-01T10:21:01.215Z,20.10
2018-10-01T10:23:29.497Z,20.10
2018-10-01T10:25:58.696Z,20.00
2018-10-01T10:28:26.986Z,20.00
2018-10-01T10:30:55.223Z,20.10
2018-10-01T10:33:23.478Z,20.20
2018-10-01T10:35:51.769Z,20.20
2018-10-01T10:38:20.096Z,20.20
2018-10-01T10:40:48.390Z,20.20
2018-10-01T10:43:16.665Z,20.20
2018-10-01T10:45:46.247Z,20.20
2018-10-01T10:48:14.630Z,20.20
2018-10-01T10:50:42.875Z,20.20
2018-10-01T10:53:11.095Z,20.10
2018-10-01T10:55:40.880Z,20.10
2018-10-01T10:58:09.157Z,20.10
2018-10-01T11:00:37.423Z,20.00
2018-10-01T11:03:05.751Z,20.10
2018-10-01T11:05:34.974Z,20.10
2018-10-01T11:08:03.280Z,20.20
2018-10-01T11:10:31.524Z,20.20
2018-10-01T11:12:59.795Z,20.20
2018-10-01T11:15:28.143Z,20.20
2018-10-01T11:17:56.375Z,20.20
2018-10-01T11:20:25.984Z,20.20
2018-10-01T11:22:54.061Z,20.10
2018-10-01T11:25:22.353Z,20.10
2018-10-01T11:27:50.653Z,20.10
2018-10-01T11:30:18.925Z,20.10
2018-10-01T11:32:47.259Z,20.00
2018-10-01T11:35:15.779Z,20.00
2018-10-01T11:37:43.840Z,20.00
2018-10-01T11:40:12.151Z,20.00
2018-10-01T11:42:40.421Z,20.00
2018-10-01T11:45:08.819Z,20.00
2018-10-01T11:47:37.122Z,20.00
2018-10-01T11:50:05.444Z,20.00
2018-10-01T11:52:33.765Z,20.00
2018-10-01T11:55:02.022Z,20.00
2018-10-01T11:57:30.330Z,20.00
2018-10-01T12:00:00.114Z,20.10
2018-10-01T12:02:28.426Z,20.10
2018-10-01T12:04:56.715Z,20.10
2018-10-01T12:07:25.007Z,20.10
2018-10-01T12:09:53.476Z,20.10
2018-10-01T12:12:21.693Z,20.10
2018-10-01T12:14:49.975Z,20.10
2018-10-01T12:17:18.259Z,20.10
2018-10-01T12:19:46.552Z,20.00
2018-10-01T12:22:14.925Z,20.00
2018-10-01T12:24:43.093Z,20.00
2018-10-01T12:27:11.445Z,20.00
2018-10-01T12:29:39.677Z,20.00
2018-10-01T12:32:07.945Z,20.10
2018-10-01T12:34:36.242Z,20.10
2018-10-01T12:37:04.500Z,20.10
2018-10-01T12:39:32.825Z,20.10
2018-10-01T12:42:01.097Z,20.10
2018-10-01T12:44:29.378Z,20.10
2018-10-01T12:46:57.644Z,20.10
2018-10-01T12:49:25.936Z,20.00
2018-10-01T12:51:54.216Z,20.00
2018-10-01T12:54:22.524Z,20.00
2018-10-01T12:56:50.801Z,20.00
2018-10-01T12:59:19.204Z,20.00
2018-10-01T13:01:47.479Z,20.00
2018-10-01T13:04:15.764Z,20.00
2018-10-01T13:06:44.130Z,20.00
2018-10-01T13:09:13.024Z,20.10
2018-10-01T13:11:41.584Z,20.10
2018-10-01T13:14:10.183Z,20.10
2018-10-01T13:16:38.884Z,20.10
2018-10-01T13:19:07.180Z,20.10
2018-10-01T13:21:35.760Z,20.10
2018-10-01T13:24:04.345Z,20.10
2018-10-01T13:26:32.589Z,20.10
2018-10-01T13:29:00.859Z,20.10
2018-10-01T13:31:29.143Z,20.00
2018-10-01T13:33:57.440Z,20.00
2018-10-01T13:36:25.756Z,20.00
2018-10-01T13:38:54.010Z,20.00
2018-10-01T13:41:22.295Z,20.00
2018-10-01T13:43:50.856Z,20.10
2018-10-01T13:46:19.139Z,20.10
2018-10-01T13:48:47.500Z,20.10
2018-10-01T13:51:15.688Z,20.10
2018-10-01T13:53:43.994Z,20.10
2018-10-01T13:56:12.314Z,20.10
2018-10-01T13:58:40.636Z,20.10
2018-10-01T14:01:08.928Z,20.00
2018-10-01T14:03:37.204Z,20.00
2018-10-01T14:06:05.485Z,20.00
2018-10-01T14:08:33.752Z,20.00
2018-10-01T14:11:02.046Z,20.00
2018-10-01T14:13:31.192Z,20.00
2018-10-01T14:15:59.305Z,20.00
2018-10-01T14:18:27.594Z,20.10
2018-10-01T14:20:55.980Z,20.10
2018-10-01T14:23:25.241Z,20.10
2018-10-01T14:25:54.498Z,20.00
2018-10-01T14:28:23.480Z,20.00
2018-10-01T14:30:51.793Z,20.00
2018-10-01T14:33:20.101Z,20.00
2018-10-01T14:35:48.324Z,20.00
2018-10-01T14:38:16.606Z,20.00
2018-10-01T14:40:44.922Z,20.00
2018-10-01T14:43:13.200Z,20.00
2018-10-01T14:45:41.492Z,19.90
2018-10-01T14:48:09.929Z,19.90
2018-10-01T14:50:38.157Z,19.90
2018-10-01T14:53:06.465Z,19.90
2018-10-01T14:55:34.763Z,19.90
2018-10-01T14:58:03.075Z,19.90
2018-10-01T15:00:31.529Z,19.90
2018-10-01T15:02:59.690Z,19.90
2018-10-01T15:05:27.967Z,19.90
2018-10-01T15:07:56.287Z,20.00
2018-10-01T15:10:24.571Z,20.00
2018-10-01T15:12:52.849Z,20.20
2018-10-01T15:15:21.132Z,20.20
2018-10-01T15:17:49.426Z,20.20
2018-10-01T15:20:17.716Z,20.20
2018-10-01T15:22:46.065Z,20.10
2018-10-01T15:25:14.953Z,20.10
2018-10-01T15:27:43.262Z,20.00
2018-10-01T15:30:11.563Z,20.00
2018-10-01T15:32:39.835Z,20.00
2018-10-01T15:35:08.166Z,20.00
2018-10-01T15:37:37.639Z,20.00
2018-10-01T15:40:05.988Z,20.00
2018-10-01T15:42:34.270Z,20.00
2018-10-01T15:45:02.573Z,19.90
2018-10-01T15:47:30.869Z,19.90
2018-10-01T15:49:59.743Z,19.90
2018-10-01T15:52:29.316Z,19.90
2018-10-01T15:54:57.609Z,20.00
2018-10-01T15:57:25.884Z,20.10
2018-10-01T15:59:54.152Z,20.10
2018-10-01T16:02:22.440Z,20.10
2018-10-01T16:04:50.708Z,20.10
2018-10-01T16:07:19.033Z,20.00
2018-10-01T16:09:47.993Z,20.00
2018-10-01T16:12:16.281Z,20.00
2018-10-01T16:14:44.574Z,20.00
2018-10-01T16:17:12.850Z,20.00
2018-10-01T16:19:41.184Z,20.00
2018-10-01T16:22:09.578Z,20.00
2018-10-01T16:24:37.873Z,20.00
2018-10-01T16:27:06.141Z,20.00
2018-10-01T16:29:34.388Z,20.00
2018-10-01T16:32:02.696Z,20.10
2018-10-01T16:34:31.030Z,20.10
2018-10-01T16:36:59.912Z,20.10
2018-10-01T16:39:28.204Z,20.00
2018-10-01T16:41:56.542Z,20.00
2018-10-01T16:44:24.821Z,20.00
2018-10-01T16:46:53.097Z,20.00
2018-10-01T16:49:21.415Z,20.00
2018-10-01T16:51:49.690Z,20.00
2018-10-01T16:54:17.988Z,20.00
2018-10-01T16:56:46.768Z,19.90
2018-10-01T16:59:15.070Z,19.90
2018-10-01T17:01:43.358Z,19.90
2018-10-01T17:04:11.644Z,19.90
2018-10-01T17:06:39.959Z,19.90
2018-10-01T17:09:08.913Z,19.90
2018-10-01T17:11:37.204Z,19.90
2018-10-01T17:14:05.513Z,19.90
2018-10-01T17:16:33.801Z,19.90
2018-10-01T17:19:02.076Z,19.90
2018-10-01T17:21:30.360Z,20.00
2018-10-01T17:23:58.657Z,20.20
2018-10-01T17:26:26.933Z,20.20
2018-10-01T17:28:55.205Z,20.20
2018-10-01T17:31:23.501Z,20.20
2018-10-01T17:33:51.785Z,20.20
2018-10-01T17:36:20.310Z,20.10
2018-10-01T17:38:48.997Z,20.00
2018-10-01T17:41:17.342Z,20.00
2018-10-01T17:43:47.120Z,20.00
2018-10-01T17:46:15.509Z,20.00
2018-10-01T17:48:43.839Z,20.00
2018-10-01T17:51:12.154Z,20.00
2018-10-01T17:53:40.443Z,20.00
2018-10-01T17:56:08.733Z,19.90
2018-10-01T17:58:37.651Z,19.90
2018-10-01T18:01:05.961Z,19.90
2018-10-01T18:03:34.339Z,19.90
2018-10-01T18:06:02.645Z,19.90
2018-10-01T18:08:30.967Z,19.90
2018-10-01T18:10:59.839Z,19.90
2018-10-01T18:13:28.159Z,19.90
2018-10-01T18:15:56.507Z,19.90
2018-10-01T18:18:24.863Z,19.90
2018-10-01T18:20:53.225Z,19.90
2018-10-01T18:23:21.797Z,20.10
2018-10-01T18:25:51.052Z,20.30
2018-10-01T18:28:19.409Z,20.50
2018-10-01T18:30:47.732Z,20.70
2018-10-01T18:33:16.675Z,20.80
2018-10-01T18:35:45.062Z,21.00
2018-10-01T18:38:13.423Z,21.00
2018-10-01T18:40:41.788Z,21.10
2018-10-01T18:43:10.165Z,21.10
2018-10-01T18:45:38.527Z,21.20
2018-10-01T18:48:07.283Z,21.10
2018-10-01T18:50:35.696Z,21.00
2018-10-01T18:53:04.055Z,20.80
2018-10-01T18:55:32.442Z,20.70
2018-10-01T18:58:00.807Z,20.60
2018-10-01T19:00:29.300Z,20.50
2018-10-01T19:02:57.742Z,20.50
2018-10-01T19:05:26.127Z,20.40
2018-10-01T19:07:55.115Z,20.30
2018-10-01T19:10:23.589Z,20.20
2018-10-01T19:12:51.983Z,20.20
2018-10-01T19:15:20.429Z,20.20
2018-10-01T19:17:49.360Z,20.20
2018-10-01T19:20:17.714Z,20.40
2018-10-01T19:22:46.115Z,20.40
2018-10-01T19:25:14.542Z,20.50
2018-10-01T19:27:43.092Z,20.40
2018-10-01T19:30:12.563Z,20.30
2018-10-01T19:32:40.970Z,20.30
2018-10-01T19:35:09.781Z,20.30
2018-10-01T19:37:38.237Z,20.30
2018-10-01T19:40:07.259Z,20.20
2018-10-01T19:42:36.529Z,20.20
2018-10-01T19:45:05.118Z,20.10
2018-10-01T19:47:34.403Z,20.10
2018-10-01T19:50:02.803Z,20.10
2018-10-01T19:52:31.491Z,20.20
2018-10-01T19:55:00.830Z,20.20
2018-10-01T19:57:29.202Z,20.30
2018-10-01T19:59:58.856Z,20.20
2018-10-01T20:02:27.242Z,20.20
2018-10-01T20:04:55.764Z,20.10
2018-10-01T20:07:24.684Z,20.10
2018-10-01T20:09:53.082Z,20.10
2018-10-01T20:12:21.562Z,20.10
2018-10-01T20:14:49.969Z,20.10
2018-10-01T20:17:18.389Z,20.00
2018-10-01T20:19:47.434Z,20.00
2018-10-01T20:22:15.837Z,20.00
2018-10-01T20:24:44.178Z,20.00
2018-10-01T20:27:12.553Z,20.10
2018-10-01T20:29:41.004Z,20.20
2018-10-01T20:32:09.227Z,20.20
2018-10-01T20:34:37.522Z,20.10
2018-10-01T20:37:05.869Z,20.10
2018-10-01T20:39:34.583Z,20.10
2018-10-01T20:42:02.993Z,20.10
2018-10-01T20:44:31.311Z,20.10
2018-10-01T20:46:59.713Z,20.00
2018-10-01T20:49:28.007Z,20.00
2018-10-01T20:51:56.343Z,20.00
2018-10-01T20:54:24.657Z,20.00
2018-10-01T20:56:52.987Z,20.00
2018-10-01T20:59:21.364Z,20.00
2018-10-01T21:01:49.601Z,20.10
2018-10-01T21:04:17.921Z,20.20
2018-10-01T21:06:46.221Z,20.20
2018-10-01T21:09:14.569Z,20.20
2018-10-01T21:11:42.809Z,20.10
2018-10-01T21:14:11.169Z,20.10
2018-10-01T21:16:40.281Z,20.10
2018-10-01T21:19:08.577Z,20.10
2018-10-01T21:21:36.869Z,20.00
2018-10-01T21:24:05.195Z,20.00
2018-10-01T21:26:33.495Z,20.00
2018-10-01T21:29:01.777Z,20.00
2018-10-01T21:31:30.075Z,20.00
2018-10-01T21:33:58.426Z,20.00
2018-10-01T21:36:26.672Z,19.90
2018-10-01T21:38:54.958Z,19.90
2018-10-01T21:41:23.241Z,19.90
2018-10-01T21:43:51.545Z,19.90
2018-10-01T21:46:19.828Z,19.90
2018-10-01T21:48:48.654Z,19.90
2018-10-01T21:51:16.941Z,20.00
2018-10-01T21:53:45.237Z,20.10
2018-10-01T21:56:13.503Z,20.10
2018-10-01T21:58:41.812Z,20.20
2018-10-01T22:01:16.257Z,20.10
2018-10-01T22:03:45.732Z,20.10
2018-10-01T22:06:14.034Z,20.10
2018-10-01T22:08:42.310Z,20.10
2018-10-01T22:11:10.954Z,20.00
2018-10-01T22:13:39.273Z,20.00
2018-10-01T22:16:07.593Z,20.00
2018-10-01T22:18:35.872Z,20.00
2018-10-01T22:21:05.084Z,20.00
2018-10-01T22:23:33.371Z,20.00
2018-10-01T22:26:01.676Z,20.00
2018-10-01T22:28:29.981Z,20.10
2018-10-01T22:30:58.273Z,20.20
2018-10-01T22:33:26.546Z,20.20
2018-10-01T22:35:54.910Z,20.10
2018-10-01T22:38:23.183Z,20.10
2018-10-01T22:40:51.475Z,20.10
2018-10-01T22:43:20.597Z,20.00
2018-10-01T22:45:48.891Z,20.00
2018-10-01T22:48:17.175Z,20.00
2018-10-01T22:50:45.468Z,20.00
2018-10-01T22:53:13.789Z,19.90
2018-10-01T22:55:42.047Z,19.90
2018-10-01T22:58:10.354Z,19.90
2018-10-01T23:00:38.642Z,19.90
2018-10-01T23:03:07.068Z,19.90
2018-10-01T23:05:35.335Z,19.90
2018-10-01T23:08:03.597Z,19.90
2018-10-01T23:10:31.863Z,19.80
2018-10-01T23:13:00.145Z,19.80
2018-10-01T23:15:28.429Z,19.90
2018-10-01T23:17:56.694Z,20.00
2018-10-01T23:20:24.995Z,20.10
2018-10-01T23:22:53.325Z,20.10
2018-10-01T23:25:21.601Z,20.10
2018-10-01T23:27:49.883Z,20.00
2018-10-01T23:30:18.174Z,20.00
2018-10-01T23:32:46.455Z,20.00
2018-10-01T23:35:14.724Z,20.00
2018-10-01T23:37:43.024Z,20.00
2018-10-01T23:40:11.287Z,19.90
2018-10-01T23:42:39.543Z,19.90
2018-10-01T23:45:07.815Z,19.90
2018-10-01T23:47:36.078Z,19.90
2018-10-01T23:50:04.428Z,19.90
2018-10-01T23:52:32.709Z,20.00
2018-10-01T23:55:01.223Z,20.00
2018-10-01T23:57:29.489Z,20.00
2018-10-01T23:59:57.769Z,19.90
